Terminal Aerodrome Forecast
Issued by NWS Cleveland, OH

Home | Current Version | Previous Version | Graphics & Text | Print | Product List | Glossary On
Versions: 1 2 3 4 5 6 7 8 9 10 11 12 13 14 15 16 17 18 19 20 21 22 23 24 25 26
851
FTUS41 KCLE 211544 AAB
TAFCLE
TAF AMD
KCLE 211544Z 2116/2218 03012KT 6SM -RA SCT020 OVC050
      TEMPO 2116/2120 2SM -DZ BR BKN015 OVC030
     FM212000 02012KT P6SM -SHRA BKN030 OVC060
     FM220200 01004KT P6SM SCT035 BKN150
     FM221500 34010KT P6SM BKN035 OVC100=

USA.gov is the U.S. government's official web portal to all federal, state and local government web resources and services.